sensor_id;sensor_type;location;lat;lon;timestamp;P1;durP1;ratioP1;P2;durP2;ratioP2
86116;SDS011;76770;0.000;0.000;2024-02-26T00:00:37;4.82;;;2.90;;
86116;SDS011;76770;0.000;0.000;2024-02-26T00:03:03;4.00;;;2.63;;
86116;SDS011;76770;0.000;0.000;2024-02-26T00:05:29;3.97;;;2.63;;
86116;SDS011;76770;0.000;0.000;2024-02-26T00:07:56;4.30;;;2.90;;
86116;SDS011;76770;0.000;0.000;2024-02-26T00:10:22;3.90;;;2.50;;
86116;SDS011;76770;0.000;0.000;2024-02-26T00:12:49;3.90;;;2.70;;
86116;SDS011;76770;0.000;0.000;2024-02-26T00:15:15;4.68;;;2.65;;
86116;SDS011;76770;0.000;0.000;2024-02-26T00:17:41;3.75;;;2.53;;
86116;SDS011;76770;0.000;0.000;2024-02-26T00:20:07;4.30;;;2.80;;
86116;SDS011;76770;0.000;0.000;2024-02-26T00:22:34;3.97;;;2.65;;
86116;SDS011;76770;0.000;0.000;2024-02-26T00:25:00;4.60;;;2.60;;
86116;SDS011;76770;0.000;0.000;2024-02-26T00:27:26;3.78;;;2.60;;
86116;SDS011;76770;0.000;0.000;2024-02-26T00:29:52;3.83;;;2.30;;
86116;SDS011;76770;0.000;0.000;2024-02-26T00:32:18;3.55;;;2.45;;
86116;SDS011;76770;0.000;0.000;2024-02-26T00:34:44;4.05;;;2.70;;
86116;SDS011;76770;0.000;0.000;2024-02-26T00:37:10;4.10;;;2.50;;
86116;SDS011;76770;0.000;0.000;2024-02-26T00:39:36;3.17;;;2.22;;
86116;SDS011;76770;0.000;0.000;2024-02-26T00:42:02;3.55;;;2.38;;
86116;SDS011;76770;0.000;0.000;2024-02-26T00:44:28;3.08;;;2.17;;
86116;SDS011;76770;0.000;0.000;2024-02-26T00:46:54;4.10;;;2.73;;
86116;SDS011;76770;0.000;0.000;2024-02-26T00:49:20;3.90;;;2.45;;
86116;SDS011;76770;0.000;0.000;2024-02-26T00:51:46;3.10;;;2.30;;
86116;SDS011;76770;0.000;0.000;2024-02-26T00:54:12;4.47;;;2.50;;
86116;SDS011;76770;0.000;0.000;2024-02-26T00:56:38;3.65;;;2.22;;
86116;SDS011;76770;0.000;0.000;2024-02-26T00:59:04;3.30;;;2.30;;
86116;SDS011;76770;0.000;0.000;2024-02-26T01:01:30;3.47;;;2.33;;
86116;SDS011;76770;0.000;0.000;2024-02-26T01:03:56;3.67;;;2.38;;
86116;SDS011;76770;0.000;0.000;2024-02-26T01:06:22;3.23;;;2.40;;
86116;SDS011;76770;0.000;0.000;2024-02-26T01:08:48;3.55;;;2.40;;
86116;SDS011;76770;0.000;0.000;2024-02-26T01:11:15;3.23;;;2.27;;
86116;SDS011;76770;0.000;0.000;2024-02-26T01:13:41;3.38;;;2.25;;
86116;SDS011;76770;0.000;0.000;2024-02-26T01:16:07;3.75;;;2.40;;
86116;SDS011;76770;0.000;0.000;2024-02-26T01:18:33;3.40;;;2.30;;
86116;SDS011;76770;0.000;0.000;2024-02-26T01:20:59;3.28;;;2.20;;
86116;SDS011;76770;0.000;0.000;2024-02-26T01:23:25;3.45;;;2.00;;
86116;SDS011;76770;0.000;0.000;2024-02-26T01:25:51;3.53;;;2.20;;
86116;SDS011;76770;0.000;0.000;2024-02-26T01:28:17;3.53;;;2.30;;
86116;SDS011;76770;0.000;0.000;2024-02-26T01:30:43;2.95;;;2.10;;
86116;SDS011;76770;0.000;0.000;2024-02-26T01:33:09;3.15;;;2.10;;
86116;SDS011;76770;0.000;0.000;2024-02-26T01:35:35;2.90;;;2.10;;
86116;SDS011;76770;0.000;0.000;2024-02-26T01:38:01;2.92;;;2.00;;
86116;SDS011;76770;0.000;0.000;2024-02-26T01:40:27;4.10;;;2.08;;
86116;SDS011;76770;0.000;0.000;2024-02-26T01:42:53;3.70;;;2.40;;
86116;SDS011;76770;0.000;0.000;2024-02-26T01:45:19;3.08;;;2.10;;
86116;SDS011;76770;0.000;0.000;2024-02-26T01:47:50;3.15;;;2.03;;
86116;SDS011;76770;0.000;0.000;2024-02-26T01:50:16;2.88;;;1.88;;
86116;SDS011;76770;0.000;0.000;2024-02-26T01:52:43;3.20;;;2.10;;
86116;SDS011;76770;0.000;0.000;2024-02-26T01:55:09;3.05;;;2.10;;
86116;SDS011;76770;0.000;0.000;2024-02-26T01:57:35;2.55;;;1.73;;
86116;SDS011;76770;0.000;0.000;2024-02-26T02:00:01;3.40;;;2.00;;
86116;SDS011;76770;0.000;0.000;2024-02-26T02:02:30;2.90;;;2.00;;
86116;SDS011;76770;0.000;0.000;2024-02-26T02:04:57;3.03;;;1.97;;
86116;SDS011;76770;0.000;0.000;2024-02-26T02:07:23;2.72;;;1.92;;
86116;SDS011;76770;0.000;0.000;2024-02-26T02:09:50;2.42;;;1.80;;
86116;SDS011;76770;0.000;0.000;2024-02-26T02:12:16;2.70;;;1.88;;
86116;SDS011;76770;0.000;0.000;2024-02-26T02:14:42;2.95;;;1.85;;
86116;SDS011;76770;0.000;0.000;2024-02-26T02:17:08;3.63;;;1.90;;
86116;SDS011;76770;0.000;0.000;2024-02-26T02:19:34;2.78;;;2.00;;
86116;SDS011;76770;0.000;0.000;2024-02-26T02:22:00;3.15;;;1.90;;
86116;SDS011;76770;0.000;0.000;2024-02-26T02:24:26;2.63;;;1.70;;
86116;SDS011;76770;0.000;0.000;2024-02-26T02:26:52;2.85;;;1.83;;
86116;SDS011;76770;0.000;0.000;2024-02-26T02:29:18;3.03;;;1.77;;
86116;SDS011;76770;0.000;0.000;2024-02-26T02:31:44;2.45;;;1.70;;
86116;SDS011;76770;0.000;0.000;2024-02-26T02:34:10;2.30;;;1.70;;
86116;SDS011;76770;0.000;0.000;2024-02-26T02:36:47;2.80;;;1.70;;
86116;SDS011;76770;0.000;0.000;2024-02-26T02:39:14;2.15;;;1.60;;
86116;SDS011;76770;0.000;0.000;2024-02-26T02:41:41;2.67;;;1.80;;
86116;SDS011;76770;0.000;0.000;2024-02-26T02:44:07;2.60;;;1.80;;
86116;SDS011;76770;0.000;0.000;2024-02-26T02:46:33;3.17;;;2.00;;
86116;SDS011;76770;0.000;0.000;2024-02-26T02:49:00;2.38;;;1.60;;
86116;SDS011;76770;0.000;0.000;2024-02-26T02:51:26;2.40;;;1.70;;
86116;SDS011;76770;0.000;0.000;2024-02-26T02:53:52;3.03;;;1.70;;
86116;SDS011;76770;0.000;0.000;2024-02-26T02:56:18;2.50;;;1.70;;
86116;SDS011;76770;0.000;0.000;2024-02-26T02:58:44;2.80;;;1.60;;
86116;SDS011;76770;0.000;0.000;2024-02-26T03:01:10;2.30;;;1.50;;
86116;SDS011;76770;0.000;0.000;2024-02-26T03:03:36;2.17;;;1.50;;
86116;SDS011;76770;0.000;0.000;2024-02-26T03:06:02;2.30;;;1.55;;
86116;SDS011;76770;0.000;0.000;2024-02-26T03:08:28;2.53;;;1.65;;
86116;SDS011;76770;0.000;0.000;2024-02-26T03:10:54;2.60;;;1.50;;
86116;SDS011;76770;0.000;0.000;2024-02-26T03:13:21;2.05;;;1.42;;
86116;SDS011;76770;0.000;0.000;2024-02-26T03:15:47;2.35;;;1.70;;
86116;SDS011;76770;0.000;0.000;2024-02-26T03:18:13;3.08;;;1.58;;
86116;SDS011;76770;0.000;0.000;2024-02-26T03:20:39;2.20;;;1.50;;
86116;SDS011;76770;0.000;0.000;2024-02-26T03:23:05;2.80;;;1.50;;
86116;SDS011;76770;0.000;0.000;2024-02-26T03:25:31;2.25;;;1.50;;
86116;SDS011;76770;0.000;0.000;2024-02-26T03:27:57;2.40;;;1.50;;
86116;SDS011;76770;0.000;0.000;2024-02-26T03:30:23;2.80;;;1.50;;
86116;SDS011;76770;0.000;0.000;2024-02-26T03:32:49;2.55;;;1.60;;
86116;SDS011;76770;0.000;0.000;2024-02-26T03:35:14;2.10;;;1.50;;
86116;SDS011;76770;0.000;0.000;2024-02-26T03:37:40;2.40;;;1.60;;
86116;SDS011;76770;0.000;0.000;2024-02-26T03:40:07;2.65;;;1.30;;
86116;SDS011;76770;0.000;0.000;2024-02-26T03:42:33;2.13;;;1.40;;
86116;SDS011;76770;0.000;0.000;2024-02-26T03:44:59;2.10;;;1.50;;
86116;SDS011;76770;0.000;0.000;2024-02-26T03:47:25;2.33;;;1.40;;
86116;SDS011;76770;0.000;0.000;2024-02-26T03:49:51;1.95;;;1.30;;
86116;SDS011;76770;0.000;0.000;2024-02-26T03:52:17;2.20;;;1.50;;
86116;SDS011;76770;0.000;0.000;2024-02-26T03:54:43;2.20;;;1.42;;
86116;SDS011;76770;0.000;0.000;2024-02-26T03:57:09;1.95;;;1.30;;
86116;SDS011;76770;0.000;0.000;2024-02-26T03:59:35;2.30;;;1.38;;
86116;SDS011;76770;0.000;0.000;2024-02-26T04:02:01;2.38;;;1.60;;
86116;SDS011;76770;0.000;0.000;2024-02-26T04:04:27;1.93;;;1.30;;
86116;SDS011;76770;0.000;0.000;2024-02-26T04:06:53;2.10;;;1.38;;
86116;SDS011;76770;0.000;0.000;2024-02-26T04:09:19;2.08;;;1.35;;
86116;SDS011;76770;0.000;0.000;2024-02-26T04:11:45;1.83;;;1.30;;
86116;SDS011;76770;0.000;0.000;2024-02-26T04:14:11;2.00;;;1.30;;
86116;SDS011;76770;0.000;0.000;2024-02-26T04:16:37;2.28;;;1.40;;
86116;SDS011;76770;0.000;0.000;2024-02-26T04:19:04;1.80;;;1.20;;
86116;SDS011;76770;0.000;0.000;2024-02-26T04:21:30;1.80;;;1.20;;
86116;SDS011;76770;0.000;0.000;2024-02-26T04:23:56;2.22;;;1.40;;
86116;SDS011;76770;0.000;0.000;2024-02-26T04:26:25;2.03;;;1.30;;
86116;SDS011;76770;0.000;0.000;2024-02-26T04:28:51;1.77;;;1.30;;
86116;SDS011;76770;0.000;0.000;2024-02-26T04:31:18;2.60;;;1.30;;
86116;SDS011;76770;0.000;0.000;2024-02-26T04:33:44;2.13;;;1.30;;
86116;SDS011;76770;0.000;0.000;2024-02-26T04:36:16;2.30;;;1.30;;
86116;SDS011;76770;0.000;0.000;2024-02-26T04:38:43;1.60;;;1.25;;
86116;SDS011;76770;0.000;0.000;2024-02-26T04:41:09;1.80;;;1.30;;
86116;SDS011;76770;0.000;0.000;2024-02-26T04:43:35;1.93;;;1.33;;
86116;SDS011;76770;0.000;0.000;2024-02-26T04:46:06;1.75;;;1.20;;
86116;SDS011;76770;0.000;0.000;2024-02-26T04:48:33;2.10;;;1.30;;
86116;SDS011;76770;0.000;0.000;2024-02-26T04:50:59;1.85;;;1.30;;
86116;SDS011;76770;0.000;0.000;2024-02-26T04:53:25;1.70;;;1.15;;
86116;SDS011;76770;0.000;0.000;2024-02-26T04:55:51;2.60;;;1.20;;
86116;SDS011;76770;0.000;0.000;2024-02-26T04:58:17;1.88;;;1.30;;
86116;SDS011;76770;0.000;0.000;2024-02-26T05:00:43;1.98;;;1.23;;
86116;SDS011;76770;0.000;0.000;2024-02-26T05:03:09;2.00;;;1.30;;
86116;SDS011;76770;0.000;0.000;2024-02-26T05:05:40;1.70;;;1.23;;
86116;SDS011;76770;0.000;0.000;2024-02-26T05:08:06;1.73;;;1.10;;
86116;SDS011;76770;0.000;0.000;2024-02-26T05:10:32;1.70;;;1.13;;
86116;SDS011;76770;0.000;0.000;2024-02-26T05:12:58;1.52;;;0.93;;
86116;SDS011;76770;0.000;0.000;2024-02-26T05:15:24;1.80;;;1.20;;
86116;SDS011;76770;0.000;0.000;2024-02-26T05:17:50;2.00;;;1.30;;
86116;SDS011;76770;0.000;0.000;2024-02-26T05:20:18;2.03;;;1.20;;
86116;SDS011;76770;0.000;0.000;2024-02-26T05:22:44;2.20;;;1.30;;
86116;SDS011;76770;0.000;0.000;2024-02-26T05:25:10;1.83;;;1.17;;
86116;SDS011;76770;0.000;0.000;2024-02-26T05:27:36;2.05;;;1.30;;
86116;SDS011;76770;0.000;0.000;2024-02-26T05:30:02;1.73;;;1.20;;
86116;SDS011;76770;0.000;0.000;2024-02-26T05:32:28;1.75;;;1.20;;
86116;SDS011;76770;0.000;0.000;2024-02-26T05:34:55;1.80;;;1.20;;
86116;SDS011;76770;0.000;0.000;2024-02-26T05:37:21;1.80;;;1.20;;
86116;SDS011;76770;0.000;0.000;2024-02-26T05:39:47;2.08;;;1.23;;
86116;SDS011;76770;0.000;0.000;2024-02-26T05:42:13;1.55;;;1.20;;
86116;SDS011;76770;0.000;0.000;2024-02-26T05:44:39;2.17;;;1.23;;
86116;SDS011;76770;0.000;0.000;2024-02-26T05:47:05;2.97;;;1.50;;
86116;SDS011;76770;0.000;0.000;2024-02-26T05:49:31;2.30;;;1.50;;
86116;SDS011;76770;0.000;0.000;2024-02-26T05:51:58;3.75;;;1.50;;
86116;SDS011;76770;0.000;0.000;2024-02-26T05:54:24;3.50;;;1.50;;
86116;SDS011;76770;0.000;0.000;2024-02-26T05:56:50;3.20;;;1.40;;
86116;SDS011;76770;0.000;0.000;2024-02-26T05:59:16;3.00;;;1.40;;
86116;SDS011;76770;0.000;0.000;2024-02-26T06:01:43;3.25;;;1.38;;
86116;SDS011;76770;0.000;0.000;2024-02-26T06:04:09;2.60;;;1.40;;
86116;SDS011;76770;0.000;0.000;2024-02-26T06:06:34;2.40;;;1.30;;
86116;SDS011;76770;0.000;0.000;2024-02-26T06:09:00;2.30;;;1.30;;
86116;SDS011;76770;0.000;0.000;2024-02-26T06:11:26;2.20;;;1.40;;
86116;SDS011;76770;0.000;0.000;2024-02-26T06:13:53;2.20;;;1.40;;
86116;SDS011;76770;0.000;0.000;2024-02-26T06:16:19;2.30;;;1.30;;
86116;SDS011;76770;0.000;0.000;2024-02-26T06:18:45;2.58;;;1.48;;
86116;SDS011;76770;0.000;0.000;2024-02-26T06:21:11;1.93;;;1.20;;
86116;SDS011;76770;0.000;0.000;2024-02-26T06:23:37;2.33;;;1.40;;
86116;SDS011;76770;0.000;0.000;2024-02-26T06:26:03;2.30;;;1.40;;
86116;SDS011;76770;0.000;0.000;2024-02-26T06:28:29;3.10;;;1.40;;
86116;SDS011;76770;0.000;0.000;2024-02-26T06:30:57;1.83;;;1.20;;
86116;SDS011;76770;0.000;0.000;2024-02-26T06:33:23;2.88;;;1.25;;
86116;SDS011;76770;0.000;0.000;2024-02-26T06:35:49;2.42;;;1.25;;
86116;SDS011;76770;0.000;0.000;2024-02-26T06:38:15;1.97;;;1.20;;
86116;SDS011;76770;0.000;0.000;2024-02-26T06:40:42;2.20;;;1.30;;
86116;SDS011;76770;0.000;0.000;2024-02-26T06:43:08;2.28;;;1.30;;
86116;SDS011;76770;0.000;0.000;2024-02-26T06:45:34;1.90;;;1.30;;
86116;SDS011;76770;0.000;0.000;2024-02-26T06:48:00;2.05;;;1.20;;
86116;SDS011;76770;0.000;0.000;2024-02-26T06:50:27;1.58;;;1.10;;
86116;SDS011;76770;0.000;0.000;2024-02-26T06:52:53;2.10;;;1.30;;
86116;SDS011;76770;0.000;0.000;2024-02-26T06:55:19;2.03;;;1.20;;
86116;SDS011;76770;0.000;0.000;2024-02-26T06:57:45;2.33;;;1.30;;
86116;SDS011;76770;0.000;0.000;2024-02-26T07:00:11;2.22;;;1.13;;
86116;SDS011;76770;0.000;0.000;2024-02-26T07:02:39;2.80;;;1.50;;
86116;SDS011;76770;0.000;0.000;2024-02-26T07:05:06;1.87;;;1.30;;
86116;SDS011;76770;0.000;0.000;2024-02-26T07:07:32;1.63;;;1.13;;
86116;SDS011;76770;0.000;0.000;2024-02-26T07:09:58;1.85;;;1.13;;
86116;SDS011;76770;0.000;0.000;2024-02-26T07:12:24;1.70;;;1.10;;
86116;SDS011;76770;0.000;0.000;2024-02-26T07:14:50;2.27;;;1.30;;
86116;SDS011;76770;0.000;0.000;2024-02-26T07:17:17;2.53;;;1.30;;
86116;SDS011;76770;0.000;0.000;2024-02-26T07:19:43;1.77;;;1.08;;
86116;SDS011;76770;0.000;0.000;2024-02-26T07:22:09;1.52;;;1.08;;
86116;SDS011;76770;0.000;0.000;2024-02-26T07:24:35;1.83;;;1.03;;
86116;SDS011;76770;0.000;0.000;2024-02-26T07:27:01;2.13;;;1.10;;
86116;SDS011;76770;0.000;0.000;2024-02-26T07:29:27;2.05;;;1.20;;
86116;SDS011;76770;0.000;0.000;2024-02-26T07:31:53;1.90;;;1.10;;
86116;SDS011;76770;0.000;0.000;2024-02-26T07:34:19;2.15;;;1.15;;
86116;SDS011;76770;0.000;0.000;2024-02-26T07:36:45;1.80;;;1.10;;
86116;SDS011;76770;0.000;0.000;2024-02-26T07:39:11;1.70;;;1.08;;
86116;SDS011;76770;0.000;0.000;2024-02-26T07:41:37;1.75;;;1.10;;
86116;SDS011;76770;0.000;0.000;2024-02-26T07:44:04;2.90;;;1.17;;
86116;SDS011;76770;0.000;0.000;2024-02-26T07:46:30;2.30;;;1.23;;
86116;SDS011;76770;0.000;0.000;2024-02-26T07:48:56;1.30;;;0.90;;
86116;SDS011;76770;0.000;0.000;2024-02-26T07:51:22;1.77;;;1.10;;
86116;SDS011;76770;0.000;0.000;2024-02-26T07:53:48;1.80;;;1.17;;
86116;SDS011;76770;0.000;0.000;2024-02-26T07:56:14;1.67;;;1.10;;
86116;SDS011;76770;0.000;0.000;2024-02-26T07:58:40;2.10;;;1.30;;
86116;SDS011;76770;0.000;0.000;2024-02-26T08:01:06;1.70;;;1.02;;
86116;SDS011;76770;0.000;0.000;2024-02-26T08:03:32;2.15;;;1.00;;
86116;SDS011;76770;0.000;0.000;2024-02-26T08:05:58;1.80;;;1.05;;
86116;SDS011;76770;0.000;0.000;2024-02-26T08:08:24;1.45;;;1.10;;
86116;SDS011;76770;0.000;0.000;2024-02-26T08:10:50;1.30;;;1.00;;
86116;SDS011;76770;0.000;0.000;2024-02-26T08:13:16;1.85;;;1.10;;
86116;SDS011;76770;0.000;0.000;2024-02-26T08:15:42;2.13;;;1.13;;
86116;SDS011;76770;0.000;0.000;2024-02-26T08:18:08;4.18;;;1.50;;
86116;SDS011;76770;0.000;0.000;2024-02-26T08:20:34;3.28;;;1.38;;
86116;SDS011;76770;0.000;0.000;2024-02-26T08:23:00;2.63;;;1.50;;
86116;SDS011;76770;0.000;0.000;2024-02-26T08:25:25;4.20;;;1.65;;
86116;SDS011;76770;0.000;0.000;2024-02-26T08:27:52;2.28;;;1.30;;
86116;SDS011;76770;0.000;0.000;2024-02-26T08:30:18;2.17;;;1.30;;
86116;SDS011;76770;0.000;0.000;2024-02-26T08:32:44;2.40;;;1.40;;
86116;SDS011;76770;0.000;0.000;2024-02-26T08:35:11;2.47;;;1.47;;
86116;SDS011;76770;0.000;0.000;2024-02-26T08:37:37;3.70;;;1.40;;
86116;SDS011;76770;0.000;0.000;2024-02-26T08:40:03;2.20;;;1.50;;
86116;SDS011;76770;0.000;0.000;2024-02-26T08:42:29;2.60;;;1.60;;
86116;SDS011;76770;0.000;0.000;2024-02-26T08:44:55;3.65;;;1.70;;
86116;SDS011;76770;0.000;0.000;2024-02-26T08:47:21;3.13;;;1.67;;
86116;SDS011;76770;0.000;0.000;2024-02-26T08:49:47;2.95;;;1.50;;
86116;SDS011;76770;0.000;0.000;2024-02-26T08:52:14;2.42;;;1.30;;
86116;SDS011;76770;0.000;0.000;2024-02-26T08:54:40;3.08;;;1.58;;
86116;SDS011;76770;0.000;0.000;2024-02-26T08:57:06;2.28;;;1.40;;
86116;SDS011;76770;0.000;0.000;2024-02-26T08:59:32;10.68;;;1.70;;
86116;SDS011;76770;0.000;0.000;2024-02-26T09:01:58;5.72;;;1.60;;
86116;SDS011;76770;0.000;0.000;2024-02-26T09:04:24;4.85;;;1.50;;
86116;SDS011;76770;0.000;0.000;2024-02-26T09:06:52;2.78;;;1.60;;
86116;SDS011;76770;0.000;0.000;2024-02-26T09:09:18;3.43;;;1.80;;
86116;SDS011;76770;0.000;0.000;2024-02-26T09:11:45;3.75;;;1.70;;
86116;SDS011;76770;0.000;0.000;2024-02-26T09:14:11;2.63;;;1.52;;
86116;SDS011;76770;0.000;0.000;2024-02-26T09:16:37;4.53;;;1.80;;
86116;SDS011;76770;0.000;0.000;2024-02-26T09:19:03;2.83;;;1.73;;
86116;SDS011;76770;0.000;0.000;2024-02-26T09:21:29;3.30;;;1.85;;
86116;SDS011;76770;0.000;0.000;2024-02-26T09:23:55;2.90;;;1.73;;
86116;SDS011;76770;0.000;0.000;2024-02-26T09:26:21;3.83;;;1.90;;
86116;SDS011;76770;0.000;0.000;2024-02-26T09:28:47;3.80;;;1.65;;
86116;SDS011;76770;0.000;0.000;2024-02-26T09:31:14;3.30;;;1.92;;
86116;SDS011;76770;0.000;0.000;2024-02-26T09:33:42;4.13;;;2.00;;
86116;SDS011;76770;0.000;0.000;2024-02-26T09:36:08;3.20;;;1.80;;
86116;SDS011;76770;0.000;0.000;2024-02-26T09:38:35;3.28;;;1.90;;
86116;SDS011;76770;0.000;0.000;2024-02-26T09:41:03;3.65;;;1.90;;
86116;SDS011;76770;0.000;0.000;2024-02-26T09:43:32;3.95;;;1.90;;
86116;SDS011;76770;0.000;0.000;2024-02-26T09:45:59;2.85;;;1.77;;
86116;SDS011;76770;0.000;0.000;2024-02-26T09:48:26;3.70;;;2.00;;
86116;SDS011;76770;0.000;0.000;2024-02-26T09:50:52;4.03;;;2.00;;
86116;SDS011;76770;0.000;0.000;2024-02-26T09:53:18;2.97;;;1.80;;
86116;SDS011;76770;0.000;0.000;2024-02-26T09:55:47;3.37;;;2.00;;
86116;SDS011;76770;0.000;0.000;2024-02-26T09:58:13;3.05;;;1.77;;
86116;SDS011;76770;0.000;0.000;2024-02-26T10:00:43;3.47;;;1.90;;
86116;SDS011;76770;0.000;0.000;2024-02-26T10:03:13;3.67;;;1.90;;
86116;SDS011;76770;0.000;0.000;2024-02-26T10:05:40;3.22;;;1.80;;
86116;SDS011;76770;0.000;0.000;2024-02-26T10:08:07;3.45;;;1.90;;
86116;SDS011;76770;0.000;0.000;2024-02-26T10:10:34;3.22;;;2.03;;
86116;SDS011;76770;0.000;0.000;2024-02-26T10:13:00;3.03;;;1.85;;
86116;SDS011;76770;0.000;0.000;2024-02-26T10:15:27;3.25;;;1.83;;
86116;SDS011;76770;0.000;0.000;2024-02-26T10:17:53;3.08;;;1.80;;
86116;SDS011;76770;0.000;0.000;2024-02-26T10:20:19;4.07;;;1.90;;
86116;SDS011;76770;0.000;0.000;2024-02-26T10:22:48;3.50;;;2.00;;
86116;SDS011;76770;0.000;0.000;2024-02-26T10:25:15;3.25;;;1.92;;
86116;SDS011;76770;0.000;0.000;2024-02-26T10:27:41;3.58;;;1.90;;
86116;SDS011;76770;0.000;0.000;2024-02-26T10:30:20;3.50;;;2.03;;
86116;SDS011;76770;0.000;0.000;2024-02-26T10:32:47;4.10;;;2.20;;
86116;SDS011;76770;0.000;0.000;2024-02-26T10:35:13;3.30;;;1.90;;
86116;SDS011;76770;0.000;0.000;2024-02-26T10:37:40;3.42;;;2.00;;
86116;SDS011;76770;0.000;0.000;2024-02-26T10:40:09;3.47;;;2.10;;
86116;SDS011;76770;0.000;0.000;2024-02-26T10:42:35;3.35;;;2.15;;
86116;SDS011;76770;0.000;0.000;2024-02-26T10:45:02;3.75;;;2.10;;
86116;SDS011;76770;0.000;0.000;2024-02-26T10:47:29;3.08;;;1.90;;
86116;SDS011;76770;0.000;0.000;2024-02-26T10:49:55;3.50;;;2.00;;
86116;SDS011;76770;0.000;0.000;2024-02-26T10:52:21;2.85;;;1.92;;
86116;SDS011;76770;0.000;0.000;2024-02-26T10:54:50;3.50;;;2.00;;
86116;SDS011;76770;0.000;0.000;2024-02-26T10:57:19;3.40;;;1.92;;
86116;SDS011;76770;0.000;0.000;2024-02-26T10:59:46;4.00;;;2.17;;
86116;SDS011;76770;0.000;0.000;2024-02-26T11:02:13;3.42;;;1.90;;
86116;SDS011;76770;0.000;0.000;2024-02-26T11:04:39;3.25;;;1.95;;
86116;SDS011;76770;0.000;0.000;2024-02-26T11:07:05;3.42;;;2.00;;
86116;SDS011;76770;0.000;0.000;2024-02-26T11:09:32;3.67;;;2.08;;
86116;SDS011;76770;0.000;0.000;2024-02-26T11:11:58;3.33;;;2.00;;
86116;SDS011;76770;0.000;0.000;2024-02-26T11:14:25;3.78;;;1.90;;
86116;SDS011;76770;0.000;0.000;2024-02-26T11:16:51;3.83;;;2.00;;
86116;SDS011;76770;0.000;0.000;2024-02-26T11:19:18;3.20;;;2.00;;
86116;SDS011;76770;0.000;0.000;2024-02-26T11:21:44;3.03;;;2.00;;
86116;SDS011;76770;0.000;0.000;2024-02-26T11:24:11;3.50;;;2.00;;
86116;SDS011;76770;0.000;0.000;2024-02-26T11:26:57;3.20;;;1.90;;
86116;SDS011;76770;0.000;0.000;2024-02-26T11:29:25;3.38;;;2.05;;
86116;SDS011;76770;0.000;0.000;2024-02-26T11:31:52;3.50;;;2.00;;
86116;SDS011;76770;0.000;0.000;2024-02-26T11:34:18;3.40;;;2.00;;
86116;SDS011;76770;0.000;0.000;2024-02-26T11:36:45;4.28;;;2.10;;
86116;SDS011;76770;0.000;0.000;2024-02-26T11:39:12;3.42;;;2.10;;
86116;SDS011;76770;0.000;0.000;2024-02-26T11:41:40;3.50;;;1.90;;
86116;SDS011;76770;0.000;0.000;2024-02-26T11:44:06;3.03;;;1.90;;
86116;SDS011;76770;0.000;0.000;2024-02-26T11:46:32;3.50;;;2.08;;
86116;SDS011;76770;0.000;0.000;2024-02-26T11:48:59;3.47;;;1.95;;
86116;SDS011;76770;0.000;0.000;2024-02-26T11:51:32;3.60;;;2.20;;
86116;SDS011;76770;0.000;0.000;2024-02-26T11:53:59;3.97;;;2.00;;
86116;SDS011;76770;0.000;0.000;2024-02-26T11:56:25;3.83;;;1.90;;
86116;SDS011;76770;0.000;0.000;2024-02-26T11:59:01;4.50;;;2.20;;
86116;SDS011;76770;0.000;0.000;2024-02-26T12:01:46;3.60;;;1.95;;
86116;SDS011;76770;0.000;0.000;2024-02-26T12:09:07;2.85;;;1.90;;
86116;SDS011;76770;0.000;0.000;2024-02-26T12:11:36;3.90;;;2.03;;
86116;SDS011;76770;0.000;0.000;2024-02-26T12:14:03;3.20;;;1.90;;
86116;SDS011;76770;0.000;0.000;2024-02-26T12:16:38;3.27;;;2.00;;
86116;SDS011;76770;0.000;0.000;2024-02-26T12:19:05;3.03;;;1.80;;
86116;SDS011;76770;0.000;0.000;2024-02-26T12:21:35;3.08;;;1.90;;
86116;SDS011;76770;0.000;0.000;2024-02-26T12:24:13;3.28;;;1.90;;
86116;SDS011;76770;0.000;0.000;2024-02-26T12:26:41;3.23;;;1.80;;
86116;SDS011;76770;0.000;0.000;2024-02-26T12:29:07;2.90;;;1.80;;
86116;SDS011;76770;0.000;0.000;2024-02-26T12:31:34;2.95;;;1.83;;
86116;SDS011;76770;0.000;0.000;2024-02-26T12:34:04;2.72;;;1.63;;
86116;SDS011;76770;0.000;0.000;2024-02-26T12:36:30;3.10;;;1.80;;
86116;SDS011;76770;0.000;0.000;2024-02-26T12:38:56;2.95;;;1.88;;
86116;SDS011;76770;0.000;0.000;2024-02-26T12:41:22;3.35;;;1.73;;
86116;SDS011;76770;0.000;0.000;2024-02-26T12:43:48;2.80;;;1.80;;
86116;SDS011;76770;0.000;0.000;2024-02-26T12:46:14;2.75;;;1.80;;
86116;SDS011;76770;0.000;0.000;2024-02-26T12:48:44;2.88;;;1.73;;
86116;SDS011;76770;0.000;0.000;2024-02-26T12:51:11;2.90;;;1.77;;
86116;SDS011;76770;0.000;0.000;2024-02-26T12:53:38;2.90;;;1.80;;
86116;SDS011;76770;0.000;0.000;2024-02-26T12:56:05;2.65;;;1.60;;
86116;SDS011;76770;0.000;0.000;2024-02-26T12:58:32;3.95;;;1.92;;
86116;SDS011;76770;0.000;0.000;2024-02-26T13:00:59;3.20;;;1.70;;
86116;SDS011;76770;0.000;0.000;2024-02-26T13:03:25;3.55;;;1.90;;
86116;SDS011;76770;0.000;0.000;2024-02-26T13:05:52;3.05;;;1.85;;
86116;SDS011;76770;0.000;0.000;2024-02-26T13:08:21;3.30;;;1.90;;
86116;SDS011;76770;0.000;0.000;2024-02-26T13:10:48;3.28;;;1.92;;
86116;SDS011;76770;0.000;0.000;2024-02-26T13:13:15;3.47;;;1.90;;
86116;SDS011;76770;0.000;0.000;2024-02-26T13:15:45;3.57;;;1.97;;
86116;SDS011;76770;0.000;0.000;2024-02-26T13:18:12;3.43;;;2.00;;
86116;SDS011;76770;0.000;0.000;2024-02-26T13:20:38;3.60;;;1.83;;
86116;SDS011;76770;0.000;0.000;2024-02-26T13:23:09;4.20;;;1.83;;
86116;SDS011;76770;0.000;0.000;2024-02-26T13:25:36;3.05;;;1.85;;
86116;SDS011;76770;0.000;0.000;2024-02-26T13:28:19;3.72;;;2.10;;
86116;SDS011;76770;0.000;0.000;2024-02-26T13:30:51;3.20;;;1.80;;
86116;SDS011;76770;0.000;0.000;2024-02-26T13:33:18;3.08;;;1.90;;
86116;SDS011;76770;0.000;0.000;2024-02-26T13:35:44;2.58;;;1.70;;
86116;SDS011;76770;0.000;0.000;2024-02-26T13:38:10;2.75;;;1.77;;
86116;SDS011;76770;0.000;0.000;2024-02-26T13:40:37;3.42;;;2.05;;
86116;SDS011;76770;0.000;0.000;2024-02-26T13:43:04;4.00;;;1.93;;
86116;SDS011;76770;0.000;0.000;2024-02-26T13:45:30;2.70;;;1.80;;
86116;SDS011;76770;0.000;0.000;2024-02-26T13:48:01;3.63;;;2.00;;
86116;SDS011;76770;0.000;0.000;2024-02-26T13:50:28;3.05;;;1.90;;
86116;SDS011;76770;0.000;0.000;2024-02-26T13:52:54;3.00;;;1.77;;
86116;SDS011;76770;0.000;0.000;2024-02-26T13:55:21;4.05;;;1.90;;
86116;SDS011;76770;0.000;0.000;2024-02-26T13:57:49;2.95;;;1.80;;
86116;SDS011;76770;0.000;0.000;2024-02-26T14:00:17;3.30;;;1.88;;
86116;SDS011;76770;0.000;0.000;2024-02-26T14:02:43;2.65;;;1.58;;
86116;SDS011;76770;0.000;0.000;2024-02-26T14:05:09;3.42;;;1.42;;
86116;SDS011;76770;0.000;0.000;2024-02-26T14:07:35;3.17;;;1.60;;
86116;SDS011;76770;0.000;0.000;2024-02-26T14:10:01;2.75;;;1.45;;
86116;SDS011;76770;0.000;0.000;2024-02-26T14:12:27;2.50;;;1.40;;
86116;SDS011;76770;0.000;0.000;2024-02-26T14:14:53;2.93;;;1.30;;
86116;SDS011;76770;0.000;0.000;2024-02-26T14:17:20;3.45;;;1.45;;
86116;SDS011;76770;0.000;0.000;2024-02-26T14:19:47;2.00;;;1.23;;
86116;SDS011;76770;0.000;0.000;2024-02-26T14:22:14;1.98;;;1.40;;
86116;SDS011;76770;0.000;0.000;2024-02-26T14:24:41;2.05;;;1.20;;
86116;SDS011;76770;0.000;0.000;2024-02-26T14:27:10;1.83;;;1.20;;
86116;SDS011;76770;0.000;0.000;2024-02-26T14:29:40;3.80;;;1.20;;
86116;SDS011;76770;0.000;0.000;2024-02-26T14:32:08;2.35;;;1.30;;
86116;SDS011;76770;0.000;0.000;2024-02-26T14:34:34;2.30;;;1.20;;
86116;SDS011;76770;0.000;0.000;2024-02-26T14:37:00;2.20;;;1.30;;
86116;SDS011;76770;0.000;0.000;2024-02-26T14:39:26;1.85;;;1.17;;
86116;SDS011;76770;0.000;0.000;2024-02-26T14:41:52;2.75;;;1.35;;
86116;SDS011;76770;0.000;0.000;2024-02-26T14:44:18;3.50;;;1.40;;
86116;SDS011;76770;0.000;0.000;2024-02-26T14:46:44;3.80;;;1.10;;
86116;SDS011;76770;0.000;0.000;2024-02-26T14:49:10;1.80;;;1.10;;
86116;SDS011;76770;0.000;0.000;2024-02-26T14:51:37;2.50;;;1.33;;
86116;SDS011;76770;0.000;0.000;2024-02-26T14:54:03;2.05;;;1.20;;
86116;SDS011;76770;0.000;0.000;2024-02-26T14:56:29;2.05;;;1.10;;
86116;SDS011;76770;0.000;0.000;2024-02-26T14:58:55;1.85;;;1.17;;
86116;SDS011;76770;0.000;0.000;2024-02-26T15:01:21;4.43;;;1.50;;